Aviation Digital Data Service (ADDS)

Output produced by METARs form (1714 UTC 16 June 2019)
found at http://www.aviationweather.gov/metar/data/
 
TAF MMCS 161709Z 1618/1718 25012KT P6SM SKC 
     FM170400 28015KT P6SM SKC 
     FM171500 24012KT P6SM SCT220
       
TAF MMBT 161633Z 1618/1718 16010KT P6SM SCT030 BKN250 
     TEMPO 1623/1703 VC CB 
     FM170400 00000KT P6SM SCT080 BKN250
       
TAF MMUN 161701Z 1618/1724 12012KT P6SM SCT018 BKN080 BKN200 TX31/1618Z
TN26/1707Z 
     FM170200 12010KT P6SM BKN015 BKN080 BKN200 
     PROB40 1710/1714 5SM RA BKN015CB 
     FM171600 13015KT P6SM BKN018 BKN080 BKN200
       
TAF MMCN 161651Z 1618/1718 18010KT P6SM SKC 
     FM162100 24012KT P6SM SKC 
     FM170300 00000KT P6SM SKC
       
TAF MMCV 161657Z 1618/1718 16010G20KT P6SM SKC 
     TEMPO 1621/1701 SCT030 
     FM170200 14010KT P6SM SKC 
     FM171300 14015KT P6SM SKC
       
TAF MMCZ 161701Z 1618/1724 14010KT P6SM SCT015CB BKN080 BKN200 TX32/1618Z
TN25/1709Z 
     FM170200 12010KT P6SM BKN015 
     FM171500 13010KT P6SM SCT018 BKN200 
     BECMG 1718/1719 BKN015 BKN200
       
TAF MMCB 161633Z 1618/1718 20010KT P6SM SCT020 BKN080 BKN250 
     FM162100 20012KT P6SM BKN025 BKN080 
     TEMPO 1622/1702 4SM TSRA BKN015CB 
     FM170300 00000KT 5SM RA BKN020 OVC080 
     FM170600 00000KT 5SM HZ SCT015 BKN250 
     TEMPO 1712/1716 BKN015
       
TAF MMCL 161650Z 1618/1718 23010KT P6SM SKC 
     FM170400 13006KT P6SM SKC 
     FM171600 20006KT P6SM SKC
       
TAF MMLO 161647Z 1618/1718 20010KT P6SM SCT030 
     TEMPO 1623/1703 5SM TSRA BKN025CB 
     FM170600 00000KT P6SM BKN250
       
TAF MMAN 161709Z 1618/1718 12010KT P6SM SCT025 BKN080 
     FM170300 15005KT 6SM HZ BKN015 
     BECMG 1710/1711 4SM -RA BR OVC010 
     FM171600 12008KT 6SM HZ BKN015
       
TAF MMGL 161644Z 1618/1724 24010KT P6SM SCT030 SCT090 TX32/1621Z TN18/1712Z 
     BECMG 1621/1622 BKN030CB 
     TEMPO 1623/1703 4SM TSRA 
     FM170500 00000KT 6SM HZ BKN015 BKN080 
     TEMPO 1711/1715 3SM BR HZ BKN010 
     FM171700 04006KT 6SM HZ BKN025 BKN100 
     TEMPO 1722/1724 4SM TSRA BKN020CB
       
TAF MMDO 161651Z 1618/1718 24010KT P6SM SCT030 
     FM162200 24012KT 6SM VC RA SCT025CB BKN100 
     PROB40 1623/1702 5SM TSRA 
     FM170300 00000KT P6SM BKN080 
     FM171200 12010KT P6SM SKC
       
TAF MMTG 161701Z 1618/1718 31010KT P6SM SCT018 BKN080 BKN220 
     BECMG 1620/1621 6SM -RA BKN015CB 
     TEMPO 1622/1702 2SM TSRA BKN010 OVC015CB 
     FM170400 00000KT 4SM HZ BKN010 BKN080 BKN220 
     FM171500 29006KT P6SM BKN018 BKN080 BKN220
       
TAF MMTJ 161650Z 1618/1724 26008KT 6SM HZ BKN015 TX22/1620Z TN16/1704Z 
     BECMG 1619/1620 SCT020 
     FM170400 00000KT 4SM HZ BKN015 
     BECMG 1706/1707 3SM BR HZ OVC010 
     FM171600 26006KT 5SM HZ BKN012 
     FM171800 25008KT 6SM HZ SCT020
       
TAF MMMM 161644Z 1618/1724 18008KT 6SM HZ SCT030 BKN230 TX29/1621Z TN15/1712Z 
     BECMG 1621/1622 BKN030CB 
     TEMPO 1623/1703 5SM TSRA 
     FM170400 00000KT 5SM HZ BKN015 BKN250 
     TEMPO 1711/1715 3SM BR HZ 
     FM171700 16008KT 6SM HZ SCT030 SCT100 
     PROB40 1722/1724 BKN030CB
       
TAF MMTM 161634Z 1618/1718 13012KT P6SM SCT020 
     FM170300 16005KT 5SM HZ BKN015 
     TEMPO 1710/1714 4SM -RA BR OVC010 
     FM171500 14006KT 6SM HZ BKN015
       
TAF MMVR 161634Z 1618/1718 08010KT 5SM HZ SCT020 BKN250 TX33/1619Z TN25/1711Z 
     FM170300 00000KT 5SM HZ BKN015CB 
     TEMPO 1703/1707 3SM TSRA 
     FM171000 00000KT 3SM BR HZ BKN015 BKN250 
     FM171500 07006KT 5SM HZ SCT020 BKN250
       
TAF MMHO 161650Z 1618/1718 22012KT P6SM SKC 
     FM170400 26005KT P6SM SKC 
     FM171600 18010KT P6SM SKC
       
TAF MMGM 161651Z 1618/1718 18010KT P6SM SCT020 
     FM162100 24010KT P6SM SKC 
     FM170300 00000KT P6SM SKC
       
TAF MMAA 161634Z 1618/1724 16008KT P6SM SCT020 BKN100 BKN300 TX31/1618Z
TN27/1710Z 
     BECMG 1621/1622 SCT020CB 
     FM170400 07005KT P6SM SCT020 BKN120 BKN300 
     TEMPO 1707/1711 4SM TSRA BKN015CB 
     FM171700 18008KT P6SM SCT020 SCT120 BKN300
       
TAF MMZC 161644Z 1618/1724 08012KT P6SM BKN080 TX29/1621Z TN15/1711Z 
     FM170400 20006KT P6SM BKN080 
     FM171700 07010KT P6SM BKN080 
     PROB40 1721/1724 SCT030CB BKN080
       
TAF MMRX 161657Z 1618/1718 16015G25KT P6SM SCT030 
     FM170100 14012KT P6SM SKC 
     FM171300 14015KT P6SM BKN015
       
TAF MMLP 161650Z 1618/1718 26010KT P6SM SKC 
     FM170400 20008KT P6SM SKC 
     FM171600 23008KT P6SM SKC
       
TAF MMMY 161709Z 1618/1724 12010KT P6SM SCT025 BKN080 TX37/1622Z TN25/1712Z 
     FM170300 15005KT 6SM HZ BKN015 
     BECMG 1710/1711 4SM -RA BR OVC010 
     FM171600 12008KT 6SM HZ BKN015 
     FM171900 12010KT P6SM SCT035
       
TAF MMCU 161709Z 1618/1718 23012KT P6SM SKC 
     FM170400 30008KT P6SM SCT220 
     FM171600 03008KT P6SM SCT220
       
TAF MMMZ 161650Z 1618/1724 24010KT P6SM SKC TX31/1618Z TN21/1713Z 
     FM170400 15005KT P6SM SKC 
     FM171700 24010KT P6SM SKC
       
TAF MMML 161650Z 1618/1718 14012KT P6SM BKN200 
     FM170400 10006KT P6SM SKC 
     FM171600 08008KT P6SM SKC
       
TAF MMMA 161657Z 1618/1718 14015G25KT P6SM BKN025 
     FM162100 14015G25KT P6SM SCT030 BKN200 
     FM170200 14012KT P6SM SKC 
     FM171400 14015KT P6SM BKN020
       
TAF MMPB 161633Z 1618/1718 16010KT P6SM BKN025 
     TEMPO 1622/1702 4SM TSRA BKN015CB 
     FM170200 14010KT 4SM RA BKN015CB OVC080 
     PROB40 1702/1706 2SM TSRA 
     FM170900 00000KT 4SM HZ BKN015 
     FM171600 00000KT P6SM SCT020 BKN200
       
TAF MMQT 161647Z 1618/1718 23010KT 6SM HZ SCT020 BKN250 
     FM170600 00000KT P6SM BKN200 
     FM171200 00000KT 4SM HZ BKN250
       
TAF MMZH 161633Z 1618/1718 23012KT P6SM SCT015 
     FM170300 00000KT P6SM SCT010 BKN080 BKN200 
     PROB40 1706/1710 5SM TSRA BKN015CB 
     FM171200 00000KT P6SM BKN100 BKN200
       
TAF MMAS 161647Z 1618/1718 16010KT P6SM SCT030 
     FM162200 20010KT P6SM BKN040 BKN250 
     TEMPO 1623/1703 4SM TSRA BKN030CB 
     FM170600 04005KT P6SM BKN080 BKN200 
     FM171200 00000KT P6SM SCT040 BKN200
       
TAF MMTO 161634Z 1618/1724 06008KT 5SM HZ BKN015 TX23/1621Z TN11/1712Z 
     BECMG 1620/1621 4SM -RA BKN015CB 
     TEMPO 1622/1702 3SM TSRA 
     FM170400 00000KT 4SM HZ SCT015 
     BECMG 1710/1711 2SM BR HZ BKN010 
     FM171600 07006KT 4SM HZ SCT015 
     FM171900 07010KT 5SM HZ SCT015 
     TEMPO 1721/1724 4SM TSRA BKN015CB
       
TAF MMMX 161634Z 1618/1724 04010KT 6SM HZ SCT020 BKN080 TX26/1621Z TN15/1712Z 
     BECMG 1621/1622 SCT020CB 
     TEMPO 1623/1703 3SM TSRA 
     FM170400 07005KT 5SM HZ SCT020 
     TEMPO 1711/1715 BKN020 
     FM171700 07006KT 6SM HZ SCT020 
     FM172100 04010KT 6SM HZ SCT020 SCT100 
     PROB40 1722/1724 5SM TSRA BKN020CB
       
TAF MMPR 161644Z 1618/1724 22010KT P6SM SKC TX31/1618Z TN24/1711Z 
     FM170400 12005KT P6SM BKN015 
     FM171700 22010KT P6SM SCT080
       
TAF MMMD 161701Z 1618/1724 10012KT P6SM SCT020 BKN100 BKN200 TX34/1619Z
TN26/1710Z 
     BECMG 1619/1620 06012KT 
     FM170300 14008KT 6SM HZ SCT015 BKN120 
     BECMG 1710/1711 4SM BR HZ BKN008 
     FM171500 12010KT P6SM SCT020 BKN100 
     BECMG 1718/1719 06012KT 
     TEMPO 1719/1723 4SM TSRA BKN020CB
       
TAF MMPN 161647Z 1618/1718 18010KT 5SM HZ SCT025 
     FM162000 20010KT 5SM TSRA BKN025CB 
     TEMPO 1621/1623 3SM TSRA 
     FM170000 00000KT P6SM SCT020 BKN200 
     FM171200 00000KT 2SM BR BKN015 
     FM171500 00000KT 4SM HZ FU SCT020 BKN080
       
TAF MMLT 161651Z 1618/1718 04012KT P6SM SKC 
     FM170600 00000KT P6SM SKC
       
TAF MMSD 161651Z 1618/1718 14012KT P6SM SKC 
     FM170600 34010KT P6SM SKC
       
TAF AMD MMMT 161203Z 1612/1706 00000KT P6SM BKN015 
     FM161400 03005KT P6SM SCT020 
     FM161600 02012KT P6SM SCT020 
     FM162200 36012KT P6SM BKN020 
     TEMPO 1622/1702 2SM TSRA BKN015CB
       
TAF MMMV 161709Z 1618/1718 05012KT P6SM SCT030 BKN100 
     TEMPO 1623/1703 5SM RA BKN030CB 
     FM170500 00000KT 6SM HZ SCT020 
     FM171600 06008KT P6SM SCT030
       
TAF MMPG 161657Z 1618/1718 12012KT P6SM SCT025 
     FM162200 13012KT P6SM BKN025 
     PROB40 1700/1704 3SM TSRA BKN015CB 
     FM170600 12010KT P6SM BKN020 
     FM171200 12010KT 5SM HZ OVC020
       
TAF MMIO 161709Z 1618/1718 03012KT P6SM SCT100 
     PROB40 1623/1703 6SM RA SCT030CB BKN100 BKN200 
     FM170500 13005KT P6SM SCT100 
     FM171600 26008KT P6SM SCT100
       
TAF MMZO 161644Z 1618/1718 24012KT P6SM SCT020 SCT120 
     FM170400 01005KT P6SM SKC 
     FM171600 20006KT P6SM SKC
       
TAF MMSP 161644Z 1618/1724 10012KT P6SM SCT030 BKN090 TX31/1621Z TN16/1712Z 
     TEMPO 1622/1702 SCT030CB 
     FM170400 00000KT P6SM BKN080 
     FM171600 08006KT P6SM SCT020 BKN080 
     PROB40 1721/1724 4SM TSRA BKN020CB
       
TAF MMPS 161633Z 1618/1718 06010KT P6SM SCT015 
     FM162000 23010KT P6SM SCT015 BKN250 
     FM170300 06010KT P6SM BKN250 
     FM171300 06010KT P6SM BKN070
       
TAF MMNL 161657Z 1618/1718 15015KT P6SM SCT030 
     FM170300 12010KT P6SM SCT200 
     FM171500 14015KT P6SM SKC
       
TAF MMTP 161701Z 1618/1724 24010KT P6SM SCT030 BKN080 TX32/1618Z TN24/1711Z 
     BECMG 1620/1621 BKN025CB 
     TEMPO 1622/1702 4SM TSRA 
     FM170400 04005KT P6SM BKN020 BKN080 BKN250 
     PROB40 1710/1714 4SM TSRA BKN020CB 
     FM171600 25008KT P6SM BKN020 BKN090 BKN250 
     TEMPO 1720/1724 4SM TSRA BKN020CB
       
TAF MMEP 161647Z 1618/1718 28010KT P6SM SCT030 
     PROB40 1700/1704 4SM TSRA BKN020CB 
     FM170600 00000KT P6SM BKN100 
     FM171300 00000KT P6SM SKC
       
TAF MMTC 161709Z 1618/1718 04010KT P6SM SCT080 
     FM170400 35005KT P6SM SKC 
     FM171600 03008KT P6SM SCT080
       
TAF MMLM 161651Z 1618/1718 08010KT P6SM SKC 
     FM162000 20012KT P6SM SKC 
     FM170300 09010KT P6SM SKC
       
TAF MMOX 161633Z 1618/1718 20010KT 6SM HZ BKN025 OVC100 
     TEMPO 1620/1624 4SM TSRA BKN020CB 
     FM170000 20010KT 5SM RA BKN020CB OVC080 
     PROB40 1701/1705 2SM TSRA OVC010CB 
     FM170900 00000KT 5SM HZ BKN020